Time;durP1;ratioP1;P1;durP2;ratioP2;P2;SDS_P1;SDS_P2;PMS_P1;PMS_P2;Temp;Humidity;BMP_temperature;BMP_pressure;BME280_temperature;BME280_humidity;BME280_pressure;Samples;Min_cycle;Max_cycle;Signal;HPM_P1;HPM_P2
2023/10/12 00:01:23;;;;;;;0.40;0.30;;;;;;;12.61;47.14;102092.38;5012798;28;20384;-79
2023/10/12 00:03:58;;;;;;;0.40;0.30;;;;;;;12.54;46.77;102074.50;5010215;28;20491;-81
2023/10/12 00:06:30;;;;;;;0.40;0.30;;;;;;;12.42;47.22;102076.50;5009464;28;20466;-83
2023/10/12 00:08:56;;;;;;;0.57;0.38;;;;;;;12.16;47.94;102069.22;5010243;28;20475;-80
2023/10/12 00:11:21;;;;;;;0.70;0.50;;;;;;;12.17;47.93;102068.25;5008506;28;20396;-81
2023/10/12 00:13:51;;;;;;;1.50;0.50;;;;;;;12.12;48.21;102072.31;5025251;28;20470;-80
2023/10/12 00:16:20;;;;;;;0.75;0.50;;;;;;;12.12;48.24;102070.53;5008891;28;20447;-81
2023/10/12 00:18:49;;;;;;;0.60;0.40;;;;;;;12.27;47.80;102076.19;4992442;28;20855;-80
2023/10/12 00:21:15;;;;;;;0.90;0.60;;;;;;;12.27;47.83;102068.22;5009967;28;21835;-80
2023/10/12 00:23:43;;;;;;;1.02;0.70;;;;;;;12.10;48.21;102068.97;5018506;28;20445;-80
2023/10/12 00:26:09;;;;;;;0.50;0.38;;;;;;;12.05;48.13;102059.63;5010055;28;20388;-81
2023/10/12 00:28:39;;;;;;;0.50;0.40;;;;;;;12.09;48.00;102062.84;5008049;28;20407;-81
2023/10/12 00:31:12;;;;;;;0.52;0.40;;;;;;;12.08;48.21;102061.13;5011510;28;20388;-80
2023/10/12 00:33:39;;;;;;;0.73;0.47;;;;;;;12.03;48.36;102058.94;5028403;23;20461;-81
2023/10/12 00:36:11;;;;;;;0.90;0.70;;;;;;;11.97;48.69;102059.50;5029551;28;20390;-82
2023/10/12 00:38:38;;;;;;;0.40;0.30;;;;;;;12.03;48.65;102052.81;5033049;28;20386;-81
2023/10/12 00:41:04;;;;;;;0.70;0.50;;;;;;;12.08;48.19;102050.50;5032002;28;20382;-81
2023/10/12 00:43:37;;;;;;;0.80;0.60;;;;;;;12.21;47.89;102053.69;5013759;28;20409;-81
2023/10/12 00:46:58;;;;;;;0.60;0.47;;;;;;;12.23;47.68;102051.72;5015884;28;20477;-79
2023/10/12 00:49:13;;;;;;;0.63;0.32;;;;;;;12.21;47.67;102040.38;5022897;28;20386;-80
2023/10/12 00:51:40;;;;;;;0.88;0.60;;;;;;;12.19;47.70;102054.78;5031918;28;20401;-81
2023/10/12 00:54:10;;;;;;;0.85;0.52;;;;;;;12.15;47.90;102050.78;5033454;28;20830;-80
2023/10/12 00:56:36;;;;;;;0.70;0.45;;;;;;;12.02;48.14;102043.97;5032909;28;20386;-81
2023/10/12 00:59:03;;;;;;;0.73;0.50;;;;;;;12.03;48.12;102036.84;5031333;28;20398;-80
2023/10/12 01:01:31;;;;;;;0.50;0.32;;;;;;;11.98;48.33;102036.44;5033019;28;20388;-79
2023/10/12 01:03:58;;;;;;;0.88;0.57;;;;;;;12.02;48.32;102037.81;5015063;28;20463;-81
2023/10/12 01:08:52;;;;;;;0.93;0.50;;;;;;;11.82;49.01;102029.91;5038577;28;20473;-79
2023/10/12 01:11:33;;;;;;;1.05;0.60;;;;;;;11.82;48.68;102035.22;5024740;28;20492;-79
2023/10/12 01:16:54;;;;;;;0.82;0.50;;;;;;;11.97;48.28;102034.75;5032373;28;20402;-81
2023/10/12 01:19:21;;;;;;;0.75;0.50;;;;;;;11.98;48.08;102037.28;5032124;28;20761;-80
2023/10/12 01:21:58;;;;;;;0.77;0.63;;;;;;;11.84;48.50;102043.03;5014668;28;20975;-80
2023/10/12 01:24:29;;;;;;;0.50;0.30;;;;;;;11.79;48.81;102034.66;5014473;28;20402;-81
2023/10/12 01:26:56;;;;;;;1.38;1.00;;;;;;;11.84;48.50;102037.72;4998799;28;20964;-81
2023/10/12 01:29:22;;;;;;;1.00;0.65;;;;;;;11.82;48.38;102039.69;5030881;28;20448;-81
2023/10/12 01:32:05;;;;;;;0.82;0.45;;;;;;;11.76;48.52;102029.66;5013637;28;20406;-81
2023/10/12 01:34:38;;;;;;;0.80;0.50;;;;;;;11.79;48.17;102035.53;5002173;28;20501;-80
2023/10/12 01:39:56;;;;;;;1.27;0.88;;;;;;;11.71;48.66;102034.56;5017292;28;20837;-82
2023/10/12 01:42:42;;;;;;;1.10;0.60;;;;;;;11.76;48.56;102041.13;5031279;28;20378;-82
2023/10/12 01:45:53;;;;;;;0.73;0.40;;;;;;;11.84;48.23;102040.38;5029745;28;20472;-82
2023/10/12 01:48:22;;;;;;;1.23;0.60;;;;;;;11.89;47.99;102043.44;5015258;28;20825;-82
2023/10/12 01:51:14;;;;;;;0.75;0.40;;;;;;;11.91;47.99;102035.38;5005972;28;20514;-82
2023/10/12 01:53:40;;;;;;;0.93;0.60;;;;;;;11.93;47.59;102033.41;5013863;28;20418;-80
2023/10/12 01:56:09;;;;;;;0.70;0.45;;;;;;;11.89;47.65;102032.00;5031598;28;20484;-80
2023/10/12 01:58:35;;;;;;;1.25;0.60;;;;;;;11.88;47.77;102036.44;5014165;28;20410;-80
2023/10/12 02:01:07;;;;;;;0.90;0.40;;;;;;;11.72;47.98;102028.25;5013671;28;20410;-80
2023/10/12 02:03:37;;;;;;;1.10;0.63;;;;;;;11.66;48.58;102040.31;5014007;28;21002;-80
2023/10/12 02:06:06;;;;;;;0.90;0.50;;;;;;;11.51;48.94;102037.28;5013693;28;20386;-80
2023/10/12 02:08:39;;;;;;;1.10;0.60;;;;;;;11.48;49.06;102024.28;5031080;28;20796;-80
2023/10/12 02:11:26;;;;;;;0.68;0.55;;;;;;;11.52;49.02;102038.94;5031136;28;20812;-81
2023/10/12 02:14:01;;;;;;;0.82;0.50;;;;;;;11.58;48.53;102026.91;5030283;28;20383;-79
2023/10/12 02:16:38;;;;;;;0.90;0.47;;;;;;;11.60;48.48;102032.94;5013668;28;20424;-79
2023/10/12 02:19:08;;;;;;;0.70;0.38;;;;;;;11.62;48.46;102030.97;5013127;28;20387;-79
2023/10/12 02:21:37;;;;;;;1.40;0.63;;;;;;;11.53;48.86;102035.31;5030925;28;20896;-79
2023/10/12 02:24:11;;;;;;;0.80;0.43;;;;;;;11.52;48.93;102030.13;5030444;28;20414;-79
2023/10/12 02:32:24;;;;;;;0.60;0.37;;;;;;;11.48;48.80;102034.91;5030149;28;20381;-81
2023/10/12 02:34:55;;;;;;;0.50;0.30;;;;;;;11.49;48.60;102033.94;5030401;28;20505;-81
2023/10/12 02:37:24;;;;;;;1.00;0.47;;;;;;;11.51;48.57;102029.31;5030636;28;20402;-80
2023/10/12 02:39:53;;;;;;;1.13;0.52;;;;;;;11.47;48.48;102020.78;5012901;28;20393;-80
2023/10/12 02:42:38;;;;;;;1.15;0.60;;;;;;;11.50;48.38;102024.97;4995478;28;20378;-80
2023/10/12 02:45:41;;;;;;;1.00;0.50;;;;;;;11.50;48.42;102035.59;4988669;28;21001;-80
2023/10/12 02:47:58;;;;;;;0.88;0.40;;;;;;;11.31;49.03;102032.97;4985416;28;20405;-81
2023/10/12 02:50:29;;;;;;;1.10;0.50;;;;;;;11.31;48.77;102027.66;4988805;28;20432;-81
2023/10/12 02:52:56;;;;;;;1.05;0.57;;;;;;;11.36;48.79;102039.56;4956204;28;20935;-80
2023/10/12 02:55:40;;;;;;;1.42;0.57;;;;;;;11.29;48.83;102028.66;4972158;28;20394;-82
2023/10/12 02:58:19;;;;;;;1.20;0.52;;;;;;;11.30;48.92;102024.16;4958318;28;20397;-83
2023/10/12 03:00:47;;;;;;;1.20;0.50;;;;;;;11.34;48.79;102033.53;4972003;28;20421;-81
2023/10/12 03:03:25;;;;;;;1.27;0.60;;;;;;;11.36;48.41;102020.09;4996081;28;20506;-80
2023/10/12 03:06:07;;;;;;;0.82;0.43;;;;;;;11.33;48.61;102026.56;4990471;28;20425;-81
2023/10/12 03:08:34;;;;;;;1.20;0.67;;;;;;;11.32;48.44;102027.53;4988493;28;21011;-81
2023/10/12 03:11:25;;;;;;;1.40;0.60;;;;;;;11.31;48.72;102025.88;4972006;28;20540;-82
2023/10/12 03:14:00;;;;;;;1.13;0.50;;;;;;;11.36;48.50;102020.09;4989195;28;20398;-82
2023/10/12 03:16:41;;;;;;;0.70;0.30;;;;;;;11.35;48.52;102021.94;5003977;28;20396;-84
2023/10/12 03:22:23;;;;;;;1.05;0.45;;;;;;;11.36;48.34;102023.63;4997125;28;20398;-81
2023/10/12 03:24:51;;;;;;;1.23;0.43;;;;;;;11.35;48.49;102029.91;5022042;28;20406;-79
2023/10/12 03:27:17;;;;;;;0.57;0.25;;;;;;;11.36;48.58;102025.41;5018935;28;20386;-80
2023/10/12 03:29:43;;;;;;;1.13;0.40;;;;;;;11.32;48.73;102021.38;5013419;28;20816;-80
2023/10/12 03:32:11;;;;;;;1.27;0.45;;;;;;;11.33;48.74;102023.06;5028627;28;20897;-81
2023/10/12 03:37:20;;;;;;;0.82;0.43;;;;;;;11.29;48.82;102019.88;5029739;28;20469;-80
2023/10/12 03:45:07;;;;;;;1.05;0.52;;;;;;;11.27;48.49;102027.97;5029768;28;20410;-80
2023/10/12 03:47:46;;;;;;;0.93;0.50;;;;;;;11.29;48.51;102027.81;5029628;28;20398;-80
2023/10/12 03:50:17;;;;;;;0.80;0.52;;;;;;;11.32;48.41;102019.56;5028549;28;20390;-80
2023/10/12 03:52:52;;;;;;;0.80;0.40;;;;;;;11.27;48.53;102024.44;5029337;28;20962;-79
2023/10/12 03:55:32;;;;;;;0.82;0.43;;;;;;;11.14;48.70;102022.09;5011767;28;20409;-79
2023/10/12 03:58:23;;;;;;;0.53;0.40;;;;;;;10.97;49.63;102033.44;5014654;28;21572;-79
2023/10/12 04:01:06;;;;;;;1.75;0.80;;;;;;;10.74;49.90;102032.88;5028632;28;20828;-79
2023/10/12 04:03:39;;;;;;;0.95;0.70;;;;;;;10.55;51.06;102034.50;5011527;28;20406;-79
2023/10/12 04:06:22;;;;;;;0.35;0.30;;;;;;;10.43;51.39;102036.44;5026768;28;20935;-79
2023/10/12 04:08:59;;;;;;;0.80;0.60;;;;;;;10.32;51.67;102033.94;4995391;28;20386;-79
2023/10/12 04:14:43;;;;;;;0.40;0.30;;;;;;;10.18;52.47;102031.63;5029462;28;20977;-80
2023/10/12 04:17:09;;;;;;;1.27;0.80;;;;;;;10.35;51.79;102036.28;5028738;28;20398;-79
2023/10/12 04:19:38;;;;;;;0.60;0.38;;;;;;;10.54;51.31;102038.16;5029492;28;20394;-79
2023/10/12 04:24:54;;;;;;;0.70;0.40;;;;;;;10.51;51.23;102031.31;5014215;28;21014;-81
2023/10/12 04:29:51;;;;;;;0.73;0.50;;;;;;;10.45;51.53;102025.72;5030212;28;20385;-80
2023/10/12 04:32:27;;;;;;;0.65;0.40;;;;;;;10.31;51.83;102026.94;5028134;28;20406;-81
2023/10/12 04:34:59;;;;;;;0.35;0.35;;;;;;;10.24;51.87;102031.06;5029729;28;20410;-82
2023/10/12 04:37:27;;;;;;;0.32;0.30;;;;;;;10.01;53.16;102022.47;5029386;28;20757;-80
2023/10/12 04:40:33;;;;;;;0.73;0.50;;;;;;;10.11;52.85;102031.31;5011633;28;20394;-81
2023/10/12 04:42:45;;;;;;;1.20;1.00;;;;;;;10.15;52.42;102030.06;5025815;28;20431;-80
2023/10/12 04:48:18;;;;;;;4.80;1.00;;;;;;;10.18;52.58;102024.50;5011843;28;20428;-80
2023/10/12 04:50:44;;;;;;;0.80;0.50;;;;;;;10.16;52.23;102022.97;5028992;28;20394;-81
2023/10/12 04:53:14;;;;;;;0.70;0.43;;;;;;;10.11;52.55;102026.84;5011255;28;20417;-81
2023/10/12 04:55:47;;;;;;;1.00;0.70;;;;;;;10.22;52.57;102025.06;5011841;28;20885;-80
2023/10/12 04:58:31;;;;;;;0.50;0.38;;;;;;;10.33;52.29;102027.63;5010603;28;20398;-80
2023/10/12 05:01:20;;;;;;;1.15;1.05;;;;;;;10.25;52.54;102036.22;5029508;28;20778;-81
2023/10/12 05:06:36;;;;;;;0.65;0.40;;;;;;;10.12;52.74;102038.31;5028755;28;20389;-83
2023/10/12 05:09:10;;;;;;;1.00;0.90;;;;;;;10.12;52.94;102038.31;5029366;28;20889;-80
2023/10/12 05:11:37;;;;;;;1.08;0.90;;;;;;;10.13;53.17;102029.38;5029459;28;20386;-80
2023/10/12 05:14:12;;;;;;;0.52;0.47;;;;;;;9.95;53.92;102035.28;5011732;28;20394;-81
2023/10/12 05:16:47;;;;;;;0.80;0.50;;;;;;;9.85;53.89;102029.13;5030743;28;20406;-81
2023/10/12 05:19:12;;;;;;;0.63;0.43;;;;;;;9.93;53.81;102024.00;5020544;28;20874;-80
2023/10/12 05:21:40;;;;;;;0.70;0.40;;;;;;;10.05;53.92;102034.50;5039167;28;20409;-80
2023/10/12 05:24:08;;;;;;;0.50;0.40;;;;;;;9.99;54.16;102037.69;5015367;28;20770;-81
2023/10/12 05:26:35;;;;;;;0.95;0.73;;;;;;;9.87;54.45;102035.13;5033411;28;20448;-80
2023/10/12 05:31:58;;;;;;;0.20;0.20;;;;;;;9.78;55.00;102051.81;5033694;28;20390;-79
2023/10/12 05:34:34;;;;;;;0.30;0.30;;;;;;;9.81;54.97;102048.06;5033281;28;20410;-81
2023/10/12 05:39:46;;;;;;;0.40;0.40;;;;;;;9.60;55.67;102048.94;5032983;28;20389;-79
2023/10/12 05:42:14;;;;;;;0.38;0.38;;;;;;;9.83;55.29;102054.91;5026911;28;20386;-81
2023/10/12 05:44:42;;;;;;;0.47;0.47;;;;;;;9.99;55.07;102049.09;5016985;28;20445;-81
2023/10/12 05:47:12;;;;;;;0.80;0.60;;;;;;;10.03;54.60;102053.19;4998267;28;20387;-81
2023/10/12 05:49:45;;;;;;;0.32;0.32;;;;;;;10.08;54.65;102066.88;5033346;28;20433;-80
2023/10/12 05:52:13;;;;;;;0.30;0.30;;;;;;;10.12;54.69;102062.97;5015747;28;20458;-81
2023/10/12 05:54:41;;;;;;;0.90;0.90;;;;;;;10.17;54.71;102067.03;5014990;28;20944;-80
2023/10/12 05:57:17;;;;;;;0.30;0.30;;;;;;;10.19;54.49;102065.94;4998995;28;20447;-82
2023/10/12 05:59:43;;;;;;;0.30;0.30;;;;;;;10.32;54.35;102061.25;5015939;28;20733;-80
2023/10/12 06:02:10;;;;;;;0.50;0.43;;;;;;;10.40;54.33;102060.56;5014429;28;20391;-80
2023/10/12 06:04:36;;;;;;;0.35;0.30;;;;;;;10.38;54.31;102062.53;5014243;28;20402;-81
2023/10/12 06:07:03;;;;;;;0.43;0.40;;;;;;;10.46;54.16;102068.00;5013654;28;20394;-82
2023/10/12 06:09:36;;;;;;;0.20;0.20;;;;;;;10.56;54.55;102069.84;4996716;28;20710;-82
2023/10/12 06:12:12;;;;;;;0.40;0.40;;;;;;;10.66;54.11;102060.91;4989841;28;20467;-84
2023/10/12 06:14:38;;;;;;;0.60;0.60;;;;;;;10.78;54.10;102058.13;4973953;28;20398;-81
2023/10/12 06:17:15;;;;;;;0.63;0.50;;;;;;;10.92;53.57;102059.56;4989841;28;20409;-82
2023/10/12 06:19:44;;;;;;;0.82;0.65;;;;;;;11.04;53.91;102066.41;4989460;28;20397;-83
2023/10/12 06:22:25;;;;;;;0.30;0.30;;;;;;;11.35;53.08;102063.59;4990007;28;20487;-82
2023/10/12 06:24:52;;;;;;;0.40;0.40;;;;;;;11.35;53.75;102056.44;4991513;28;20405;-81
2023/10/12 06:29:54;;;;;;;0.50;0.50;;;;;;;11.67;54.11;102056.09;4990115;28;20849;-80
2023/10/12 06:32:33;;;;;;;0.80;0.70;;;;;;;11.73;54.17;102045.88;4991231;28;20437;-82
2023/10/12 06:46:04;;;;;;;0.80;0.80;;;;;;;12.43;53.92;102059.59;5000239;28;20387;-79
2023/10/12 06:51:16;;;;;;;0.77;0.70;;;;;;;12.68;53.42;102060.69;5029128;28;20383;-81
2023/10/12 06:53:54;;;;;;;1.02;1.02;;;;;;;12.76;53.59;102066.06;5028822;28;20455;-81
2023/10/12 07:01:53;;;;;;;0.43;0.43;;;;;;;13.08;53.26;102063.88;5031677;28;20426;-82
2023/10/12 07:04:53;;;;;;;0.40;0.40;;;;;;;13.14;53.47;102065.91;5016005;28;20418;-82
2023/10/12 07:07:07;;;;;;;0.50;0.50;;;;;;;13.26;53.33;102064.69;5029741;28;20390;-82
2023/10/12 07:09:39;;;;;;;0.40;0.30;;;;;;;13.45;53.08;102074.38;5014055;28;20398;-87
2023/10/12 07:12:10;;;;;;;0.32;0.32;;;;;;;13.52;53.07;102069.22;4995261;28;20500;-81
2023/10/12 07:14:38;;;;;;;0.77;0.57;;;;;;;13.63;52.70;102076.13;4992854;28;20887;-82
2023/10/12 07:17:09;;;;;;;0.30;0.30;;;;;;;13.69;52.73;102063.03;4976863;28;20934;-83
2023/10/12 07:19:46;;;;;;;0.80;0.80;;;;;;;13.86;52.13;102069.28;5008495;28;20392;-80
2023/10/12 07:22:16;;;;;;;0.40;0.40;;;;;;;13.84;52.03;102065.09;4994184;28;20479;-82
2023/10/12 07:24:45;;;;;;;0.98;0.98;;;;;;;13.91;51.88;102066.97;4992794;28;20408;-81
2023/10/12 07:27:18;;;;;;;0.60;0.60;;;;;;;14.08;51.48;102069.72;5010539;28;20510;-85
2023/10/12 07:32:55;;;;;;;0.77;0.77;;;;;;;14.19;50.94;102061.44;4999873;28;21005;-79
2023/10/12 07:35:34;;;;;;;0.85;0.73;;;;;;;14.39;50.75;102069.19;5000777;28;20490;-81
2023/10/12 07:38:15;;;;;;;0.57;0.57;;;;;;;14.58;50.37;102066.25;5010888;28;20408;-81
2023/10/12 07:40:56;;;;;;;0.53;0.50;;;;;;;14.66;50.22;102065.47;4960982;28;20400;-81
2023/10/12 07:43:24;;;;;;;0.90;0.52;;;;;;;14.75;49.90;102059.13;5018048;28;20512;-82
2023/10/12 07:45:54;;;;;;;0.50;0.47;;;;;;;14.91;49.88;102064.50;5034902;28;20951;-82
2023/10/12 07:48:31;;;;;;;1.55;1.45;;;;;;;15.10;49.49;102068.66;5032129;28;20463;-80
2023/10/12 07:51:15;;;;;;;0.65;0.60;;;;;;;15.17;49.28;102060.81;5015318;28;20404;-82
2023/10/12 07:53:51;;;;;;;0.30;0.30;;;;;;;15.34;48.96;102053.66;5002531;28;20398;-80
2023/10/12 07:56:17;;;;;;;0.60;0.60;;;;;;;15.41;48.79;102059.13;5033760;28;20390;-81
2023/10/12 07:59:13;;;;;;;8.90;0.90;;;;;;;15.57;48.61;102052.94;5033652;28;20473;-82
2023/10/12 08:01:39;;;;;;;1.88;1.27;;;;;;;15.61;48.29;102054.25;5031328;28;20407;-80
2023/10/12 08:04:19;;;;;;;0.32;0.32;;;;;;;15.80;48.29;102045.88;5029673;28;20442;-80
2023/10/12 08:06:59;;;;;;;0.35;0.32;;;;;;;15.96;47.84;102033.47;5029071;28;20394;-80
2023/10/12 08:11:55;;;;;;;0.20;0.20;;;;;;;16.01;47.75;102023.91;5029878;28;20440;-79
2023/10/12 08:17:33;;;;;;;1.10;0.90;;;;;;;16.29;47.38;102031.47;5027179;28;20718;-80
2023/10/12 08:22:54;;;;;;;0.22;0.20;;;;;;;16.38;47.24;102021.56;5001970;28;20539;-81
2023/10/12 08:25:28;;;;;;;0.40;0.40;;;;;;;16.57;46.93;102026.47;4954766;28;20424;-81
2023/10/12 08:28:06;;;;;;;1.00;0.60;;;;;;;16.61;46.77;102019.72;4988082;28;20398;-81
2023/10/12 08:33:48;;;;;;;0.80;0.80;;;;;;;16.89;46.36;102013.03;4987691;28;20396;-80
2023/10/12 08:39:37;;;;;;;0.70;0.70;;;;;;;16.99;45.86;102016.31;4987916;28;20982;-80
2023/10/12 08:41:56;;;;;;;0.50;0.50;;;;;;;17.11;45.73;101995.28;4977941;28;20409;-79
2023/10/12 08:44:19;;;;;;;0.27;0.27;;;;;;;17.22;45.63;102002.88;4987455;28;20449;-81
2023/10/12 08:47:08;;;;;;;1.00;0.90;;;;;;;17.24;45.31;101992.78;4971854;28;20428;-81
2023/10/12 08:49:34;;;;;;;1.20;0.85;;;;;;;17.38;45.31;102000.00;4958161;28;20418;-82
2023/10/12 08:52:20;;;;;;;0.43;0.43;;;;;;;17.38;45.14;101977.75;4990367;28;20397;-79
2023/10/12 08:55:03;;;;;;;0.45;0.45;;;;;;;17.46;44.91;101983.00;4948323;28;20397;-79
2023/10/12 08:58:02;;;;;;;0.10;0.10;;;;;;;17.61;44.87;101977.66;5017920;28;20386;-79
2023/10/12 09:03:14;;;;;;;2.40;1.20;;;;;;;17.73;44.22;101969.97;5033818;28;20386;-82
2023/10/12 09:06:19;;;;;;;0.60;0.60;;;;;;;17.86;44.31;101967.50;5017812;28;20486;-81
2023/10/12 09:09:48;;;;;;;0.30;0.30;;;;;;;17.97;44.17;101971.56;5001466;28;20418;-81
2023/10/12 09:11:59;;;;;;;0.52;0.52;;;;;;;17.99;44.42;101969.50;5033604;28;20898;-79
2023/10/12 09:14:26;;;;;;;0.45;0.45;;;;;;;18.08;44.25;101954.94;5034086;28;20387;-82
2023/10/12 09:16:54;;;;;;;0.38;0.38;;;;;;;18.21;43.79;101954.25;5033233;28;20421;-78
2023/10/12 09:19:28;;;;;;;0.70;0.63;;;;;;;18.28;43.54;101954.34;4999483;28;20947;-81
2023/10/12 09:22:03;;;;;;;0.20;0.20;;;;;;;18.43;43.20;101949.72;5023786;28;20484;-85
2023/10/12 09:24:50;;;;;;;0.52;0.52;;;;;;;18.50;42.87;101945.25;5044410;28;20448;-83
2023/10/12 09:27:26;;;;;;;0.50;0.50;;;;;;;18.61;42.50;101937.72;5035145;28;20889;-84
2023/10/12 09:30:16;;;;;;;0.80;0.53;;;;;;;18.60;42.54;101931.50;5017230;28;20493;-85
2023/10/12 09:33:10;;;;;;;0.60;0.60;;;;;;;18.61;42.67;101930.47;5000951;28;20799;-85
2023/10/12 09:35:41;;;;;;;0.30;0.30;;;;;;;18.73;42.98;101925.41;5034187;28;20414;-85
2023/10/12 09:38:08;;;;;;;2.70;1.57;;;;;;;18.83;42.94;101919.72;4975913;28;20403;-87
2023/10/12 09:40:39;;;;;;;0.40;0.40;;;;;;;18.90;43.15;101926.81;4959214;28;20454;-78
2023/10/12 09:43:15;;;;;;;0.43;0.43;;;;;;;18.88;43.20;101922.66;4973564;28;20410;-84
2023/10/12 09:46:09;;;;;;;0.50;0.50;;;;;;;19.03;42.15;101925.25;4973655;28;20418;-85
2023/10/12 09:48:41;;;;;;;0.20;0.20;;;;;;;19.20;42.09;101915.03;4938973;29;20431;-85
2023/10/12 09:51:21;;;;;;;0.70;0.70;;;;;;;19.27;41.90;101905.13;4925201;29;20398;-85
2023/10/12 09:53:58;;;;;;;0.40;0.40;;;;;;;19.33;41.33;101904.31;4956034;29;20425;-86
2023/10/12 09:57:16;;;;;;;0.57;0.57;;;;;;;19.48;41.08;101896.13;4958982;29;20401;-85
2023/10/12 09:59:52;;;;;;;0.55;0.50;;;;;;;19.44;40.49;101892.19;4939235;29;20401;-85
2023/10/12 10:02:33;;;;;;;0.20;0.20;;;;;;;19.47;40.36;101881.84;4954631;28;20990;-86
2023/10/12 10:05:39;;;;;;;0.45;0.45;;;;;;;19.61;40.54;101881.91;4940519;29;20838;-85
2023/10/12 10:08:10;;;;;;;0.22;0.22;;;;;;;19.87;40.29;101878.50;4942527;28;20982;-85
2023/10/12 10:10:57;;;;;;;0.30;0.30;;;;;;;19.94;40.29;101879.34;4993104;28;20449;-86
2023/10/12 10:13:47;;;;;;;0.47;0.47;;;;;;;19.94;39.35;101871.25;4964477;28;20413;-85
2023/10/12 10:16:26;;;;;;;0.80;0.80;;;;;;;20.02;39.03;101868.41;4930684;28;21057;-84
2023/10/12 10:21:51;;;;;;;0.70;0.60;;;;;;;19.93;40.07;101853.44;5024979;28;20422;-83
2023/10/12 10:24:46;;;;;;;0.20;0.20;;;;;;;20.06;39.42;101855.34;5037033;28;20452;-85
2023/10/12 10:27:26;;;;;;;0.15;0.15;;;;;;;20.15;39.25;101847.88;5002974;28;20398;-85
2023/10/12 10:29:58;;;;;;;0.20;0.20;;;;;;;20.20;39.39;101848.09;5031768;28;20390;-84
2023/10/12 10:32:46;;;;;;;0.20;0.20;;;;;;;20.38;39.05;101842.09;5017315;28;20382;-84
2023/10/12 10:35:23;;;;;;;1.23;0.80;;;;;;;20.47;38.23;101850.81;4985776;28;20497;-85
2023/10/12 10:37:58;;;;;;;0.33;0.33;;;;;;;20.51;38.10;101835.88;5021385;28;20405;-86
2023/10/12 10:40:44;;;;;;;0.20;0.20;;;;;;;20.57;38.21;101837.75;5016460;28;20444;-86
2023/10/12 10:43:15;;;;;;;0.60;0.50;;;;;;;20.54;38.48;101822.00;5033201;28;20395;-86
2023/10/12 10:45:42;;;;;;;0.30;0.30;;;;;;;20.64;38.35;101825.13;5002096;28;20434;-84
2023/10/12 10:48:14;;;;;;;0.37;0.37;;;;;;;20.69;37.75;101827.19;5016350;28;20454;-86
2023/10/12 10:50:49;;;;;;;0.40;0.35;;;;;;;20.78;37.02;101826.75;4991984;28;20390;-85
2023/10/12 10:53:15;;;;;;;0.40;0.30;;;;;;;20.88;36.77;101806.63;4991568;28;20430;-86
2023/10/12 10:55:50;;;;;;;0.30;0.30;;;;;;;20.91;36.33;101811.59;4993314;28;20464;-84
2023/10/12 10:58:19;;;;;;;0.40;0.30;;;;;;;20.97;36.16;101800.78;4991666;28;20953;-84
2023/10/12 11:00:56;;;;;;;0.70;0.70;;;;;;;21.02;36.62;101796.63;4991384;28;20457;-83
2023/10/12 11:03:22;;;;;;;0.40;0.30;;;;;;;21.03;35.93;101790.19;4990507;28;20440;-83
2023/10/12 11:05:49;;;;;;;0.60;0.60;;;;;;;20.98;36.71;101786.28;4990816;28;20557;-85
2023/10/12 11:08:27;;;;;;;0.70;0.40;;;;;;;20.95;36.98;101775.91;4991379;28;20537;-85
2023/10/12 11:13:59;;;;;;;0.43;0.43;;;;;;;21.08;37.68;101766.13;4987368;28;20440;-85
2023/10/12 11:16:29;;;;;;;0.90;0.47;;;;;;;21.15;37.33;101756.94;4975458;28;20501;-84
2023/10/12 11:19:04;;;;;;;0.43;0.40;;;;;;;21.30;37.10;101758.53;4992611;28;20398;-86
2023/10/12 11:21:29;;;;;;;0.30;0.30;;;;;;;21.44;36.63;101759.28;4993807;28;20398;-85
2023/10/12 11:24:03;;;;;;;0.40;0.40;;;;;;;21.44;36.73;101749.31;5032020;28;20424;-84
2023/10/12 11:26:39;;;;;;;1.70;0.60;;;;;;;21.49;36.58;101749.53;5013366;28;20413;-84
2023/10/12 11:29:06;;;;;;;0.30;0.30;;;;;;;21.58;36.26;101740.13;5032986;28;20401;-84
2023/10/12 11:31:33;;;;;;;0.88;0.68;;;;;;;21.68;35.94;101738.81;5023516;28;20402;-83
2023/10/12 11:34:06;;;;;;;0.30;0.30;;;;;;;21.72;36.20;101734.66;5033102;28;20510;-84
2023/10/12 11:36:35;;;;;;;0.68;0.60;;;;;;;21.80;36.30;101731.66;5009051;28;20402;-84
2023/10/12 11:39:30;;;;;;;0.32;0.30;;;;;;;21.92;36.13;101731.78;5010527;28;20968;-84
2023/10/12 11:42:19;;;;;;;0.50;0.50;;;;;;;22.03;36.12;101724.84;5007385;28;20392;-84
2023/10/12 11:44:47;;;;;;;0.30;0.30;;;;;;;22.00;35.57;101717.97;4985734;28;20549;-85
2023/10/12 11:47:37;;;;;;;3.40;0.47;;;;;;;22.05;35.40;101710.06;4949298;29;20423;-83
2023/10/12 11:50:09;;;;;;;0.20;0.20;;;;;;;22.12;35.68;101708.13;4949793;29;20915;-83
2023/10/12 11:52:37;;;;;;;0.30;0.30;;;;;;;22.03;36.03;101705.94;4950337;29;20397;-84
2023/10/12 11:55:19;;;;;;;0.20;0.20;;;;;;;22.02;36.20;101706.97;4948901;29;20425;-83
2023/10/12 11:58:07;;;;;;;0.40;0.40;;;;;;;22.04;36.45;101694.91;4949205;29;20401;-83
2023/10/12 12:00:38;;;;;;;0.40;0.40;;;;;;;22.06;36.61;101692.81;4941698;29;20405;-82
2023/10/12 12:03:10;;;;;;;0.68;0.68;;;;;;;22.14;36.63;101686.28;4947643;29;20408;-79
2023/10/12 12:05:36;;;;;;;0.88;0.70;;;;;;;22.26;36.50;101681.84;4946584;29;20475;-83
2023/10/12 12:08:06;;;;;;;0.20;0.20;;;;;;;22.28;36.35;101673.50;4947314;29;20933;-83
2023/10/12 12:10:46;;;;;;;0.30;0.30;;;;;;;22.18;37.01;101665.06;4931966;29;20409;-83
2023/10/12 12:13:15;;;;;;;0.40;0.30;;;;;;;22.25;37.06;101660.41;4931816;29;20448;-84
2023/10/12 12:15:45;;;;;;;1.70;0.38;;;;;;;22.38;36.08;101660.28;4938016;28;20408;-83
2023/10/12 12:18:17;;;;;;;0.30;0.30;;;;;;;22.45;35.85;101658.34;4987268;28;20439;-84
2023/10/12 12:20:44;;;;;;;0.30;0.30;;;;;;;22.49;36.10;101659.56;4997231;28;20485;-83
2023/10/12 12:23:11;;;;;;;0.45;0.38;;;;;;;22.43;36.32;101654.22;4999584;28;20973;-83
2023/10/12 12:25:41;;;;;;;0.47;0.47;;;;;;;22.46;36.30;101641.09;5006323;28;20504;-83
2023/10/12 12:28:08;;;;;;;0.25;0.25;;;;;;;22.51;36.36;101638.53;4996283;28;20399;-84
2023/10/12 12:30:36;;;;;;;0.40;0.40;;;;;;;22.56;36.20;101637.84;5013189;28;20391;-83
2023/10/12 12:33:08;;;;;;;0.20;0.20;;;;;;;22.65;36.08;101641.91;4995653;28;20418;-84
2023/10/12 12:35:39;;;;;;;0.70;0.38;;;;;;;22.70;35.38;101635.78;5013108;28;20438;-79
2023/10/12 12:38:22;;;;;;;0.35;0.35;;;;;;;22.76;35.05;101631.34;5020365;28;20395;-83
2023/10/12 12:40:49;;;;;;;0.30;0.30;;;;;;;22.89;34.77;101629.28;5014135;28;20415;-84
2023/10/12 12:43:15;;;;;;;0.98;0.98;;;;;;;22.96;34.94;101628.34;5011989;28;20426;-83
2023/10/12 12:45:41;;;;;;;0.30;0.30;;;;;;;22.82;35.66;101623.16;4989991;28;20443;-84
2023/10/12 12:48:07;;;;;;;0.30;0.30;;;;;;;22.93;34.91;101620.72;4974774;28;20402;-84
2023/10/12 12:50:34;;;;;;;0.50;0.50;;;;;;;23.04;34.90;101620.78;4983409;28;20395;-86
2023/10/12 12:53:06;;;;;;;0.38;0.38;;;;;;;23.10;34.49;101600.09;4989000;28;20463;-85
2023/10/12 12:55:38;;;;;;;0.50;0.30;;;;;;;22.95;35.06;101605.91;4978423;28;20401;-85
2023/10/12 12:58:05;;;;;;;0.30;0.28;;;;;;;22.95;35.00;101611.31;4995006;28;20466;-85
2023/10/12 13:00:33;;;;;;;0.30;0.30;;;;;;;23.01;34.75;101594.19;4962738;28;20801;-84
2023/10/12 13:03:01;;;;;;;0.40;0.30;;;;;;;23.12;34.52;101598.00;4995767;28;20438;-83
2023/10/12 13:05:31;;;;;;;0.80;0.60;;;;;;;23.13;34.56;101596.94;4994072;28;20507;-83
2023/10/12 13:07:56;;;;;;;0.30;0.30;;;;;;;23.21;34.55;101588.50;4981782;28;21024;-83
2023/10/12 13:10:25;;;;;;;0.60;0.60;;;;;;;23.23;34.05;101583.66;4993198;28;20474;-84
2023/10/12 13:12:52;;;;;;;0.80;0.80;;;;;;;23.22;34.31;101581.19;4992191;28;20470;-84
2023/10/12 13:15:19;;;;;;;0.90;0.90;;;;;;;23.18;34.62;101582.72;4959010;28;20405;-83
2023/10/12 13:17:47;;;;;;;1.03;1.00;;;;;;;23.28;34.28;101581.09;5009025;28;20442;-84
2023/10/12 13:20:28;;;;;;;0.30;0.30;;;;;;;23.35;34.36;101586.38;5011633;28;20410;-84
2023/10/12 13:22:55;;;;;;;0.40;0.40;;;;;;;23.33;34.69;101571.44;5014416;28;20407;-84
2023/10/12 13:25:21;;;;;;;0.43;0.43;;;;;;;23.37;34.10;101575.31;5012857;28;20416;-85
2023/10/12 13:27:51;;;;;;;0.52;0.52;;;;;;;23.48;34.04;101578.03;5011754;28;20399;-84
2023/10/12 13:30:18;;;;;;;0.30;0.30;;;;;;;23.47;34.42;101573.66;5013669;28;20392;-85